createdAt,value
2019-04-04T00:02:05.799Z,86.60
2019-04-04T00:04:39.234Z,86.70
2019-04-04T00:07:12.582Z,86.80
2019-04-04T00:09:45.959Z,87.10
2019-04-04T00:12:20.393Z,88.40
2019-04-04T00:14:53.891Z,87.70
2019-04-04T00:17:28.490Z,87.40
2019-04-04T00:20:09.098Z,87.50
2019-04-04T00:22:46.654Z,87.80
2019-04-04T00:25:21.243Z,88.60
2019-04-04T00:27:54.606Z,88.80
2019-04-04T00:30:29.042Z,89.50
2019-04-04T00:33:02.613Z,90.00
2019-04-04T00:35:36.005Z,90.90
2019-04-04T00:38:11.069Z,90.80
2019-04-04T00:40:44.582Z,91.50
2019-04-04T00:43:20.734Z,91.10
2019-04-04T00:45:54.140Z,91.50
2019-04-04T00:48:27.450Z,91.50
2019-04-04T00:51:00.855Z,91.60
2019-04-04T00:53:35.283Z,92.00
2019-04-04T00:56:08.674Z,92.00
2019-04-04T00:58:43.020Z,91.90
2019-04-04T01:01:16.642Z,91.90
2019-04-04T01:03:50.164Z,92.00
2019-04-04T01:06:23.543Z,92.10
2019-04-04T01:08:56.912Z,92.30
2019-04-04T01:14:10.810Z,92.50
2019-04-04T01:16:44.191Z,92.50
2019-04-04T01:19:20.413Z,92.30
2019-04-04T01:21:55.675Z,92.20
2019-04-04T01:24:32.564Z,92.40
2019-04-04T01:27:06.828Z,92.10
2019-04-04T01:29:40.876Z,92.20
2019-04-04T01:32:41.194Z,92.10
2019-04-04T01:35:14.571Z,92.20
2019-04-04T01:37:47.951Z,92.70
2019-04-04T01:40:25.544Z,92.60
2019-04-04T01:42:59.099Z,92.80
2019-04-04T01:45:32.461Z,93.10
2019-04-04T01:48:05.854Z,93.60
2019-04-04T01:50:39.251Z,93.30
2019-04-04T01:53:12.673Z,93.50
2019-04-04T01:55:47.022Z,94.10
2019-04-04T02:01:48.274Z,94.50
2019-04-04T02:04:33.429Z,94.40
2019-04-04T02:07:06.903Z,94.60
2019-04-04T02:09:43.233Z,94.80
2019-04-04T02:12:15.493Z,94.90
2019-04-04T02:14:48.840Z,94.90
2019-04-04T02:17:25.192Z,95.30
2019-04-04T02:19:58.623Z,95.30
2019-04-04T02:22:33.191Z,95.00
2019-04-04T02:25:08.052Z,95.00
2019-04-04T02:27:41.450Z,95.20
2019-04-04T02:30:48.183Z,95.00
2019-04-04T02:33:20.606Z,95.30
2019-04-04T02:35:54.073Z,95.10
2019-04-04T02:38:28.279Z,95.60
2019-04-04T02:41:01.663Z,95.40
2019-04-04T02:43:35.082Z,95.20
2019-04-04T02:46:10.997Z,95.20
2019-04-04T02:48:43.593Z,95.40
2019-04-04T02:51:40.161Z,95.80
2019-04-04T02:54:12.985Z,96.00
2019-04-04T02:56:46.443Z,95.80
2019-04-04T02:59:21.625Z,95.70
2019-04-04T03:05:03.050Z,96.00
2019-04-04T03:07:36.450Z,96.00
2019-04-04T03:10:15.198Z,96.20
2019-04-04T03:12:58.499Z,96.20
2019-04-04T03:15:31.663Z,96.20
2019-04-04T03:18:05.551Z,96.00
2019-04-04T03:20:39.993Z,96.20
2019-04-04T03:23:13.404Z,96.50
2019-04-04T03:25:47.291Z,96.30
2019-04-04T03:28:21.452Z,96.30
2019-04-04T03:31:06.055Z,96.30
2019-04-04T03:33:39.552Z,96.40
2019-04-04T03:36:15.016Z,96.30
2019-04-04T03:38:55.474Z,96.60
2019-04-04T03:41:30.604Z,96.50
2019-04-04T03:44:04.059Z,96.40
2019-04-04T03:46:39.130Z,96.90
2019-04-04T03:49:12.569Z,96.80
2019-04-04T03:51:46.223Z,96.70
2019-04-04T03:54:23.294Z,96.60
2019-04-04T03:56:56.258Z,96.80
2019-04-04T03:59:32.519Z,96.70
2019-04-04T04:02:05.908Z,97.00
2019-04-04T04:04:39.455Z,96.90
2019-04-04T04:07:15.169Z,97.20
2019-04-04T04:09:47.902Z,97.20
2019-04-04T04:12:42.593Z,97.30
2019-04-04T04:15:13.932Z,97.00
2019-04-04T04:17:49.193Z,96.80
2019-04-04T04:20:23.655Z,97.20
2019-04-04T04:22:58.274Z,97.30
2019-04-04T04:25:35.770Z,97.40
2019-04-04T04:28:07.999Z,97.50
2019-04-04T04:30:41.505Z,97.40
2019-04-04T04:33:14.961Z,97.00
2019-04-04T04:35:48.393Z,97.20
2019-04-04T04:38:25.212Z,97.20
2019-04-04T04:40:58.867Z,97.30
2019-04-04T04:43:33.653Z,97.50
2019-04-04T04:46:07.252Z,97.50
2019-04-04T04:48:40.658Z,97.10
2019-04-04T04:51:14.137Z,97.20
2019-04-04T04:53:48.240Z,97.20
2019-04-04T04:56:22.561Z,97.30
2019-04-04T04:58:55.961Z,97.40
2019-04-04T05:01:29.319Z,97.10
2019-04-04T05:04:02.821Z,97.30
2019-04-04T05:06:36.482Z,97.10
2019-04-04T05:09:09.908Z,97.30
2019-04-04T05:11:43.328Z,97.20
2019-04-04T05:14:16.743Z,97.10
2019-04-04T05:16:51.320Z,97.20
2019-04-04T05:19:24.721Z,96.90
2019-04-04T05:21:58.234Z,96.80
2019-04-04T05:24:31.651Z,97.30
2019-04-04T05:27:06.157Z,96.90
2019-04-04T05:29:40.015Z,96.80
2019-04-04T05:32:13.403Z,96.80
2019-04-04T05:34:48.003Z,96.60
2019-04-04T05:37:21.391Z,96.40
2019-04-04T05:39:57.594Z,96.60
2019-04-04T05:42:33.033Z,96.70
2019-04-04T05:45:08.373Z,96.50
2019-04-04T05:47:41.795Z,96.50
2019-04-04T05:50:16.505Z,96.50
2019-04-04T05:52:50.053Z,96.00
2019-04-04T05:55:24.665Z,96.20
2019-04-04T05:57:58.027Z,96.20
2019-04-04T06:00:32.441Z,96.10
2019-04-04T06:03:06.953Z,95.90
2019-04-04T06:05:40.487Z,95.80
2019-04-04T06:08:13.858Z,95.60
2019-04-04T06:10:50.122Z,95.50
2019-04-04T06:13:26.712Z,95.30
2019-04-04T06:16:02.071Z,95.50
2019-04-04T06:18:35.434Z,95.60
2019-04-04T06:21:08.843Z,95.50
2019-04-04T06:23:42.207Z,95.50
2019-04-04T06:26:15.661Z,95.30
2019-04-04T06:28:49.081Z,94.70
2019-04-04T06:31:30.673Z,94.90
2019-04-04T06:34:02.249Z,94.90
2019-04-04T06:36:35.802Z,94.70
2019-04-04T06:39:09.321Z,94.10
2019-04-04T06:41:42.741Z,94.00
2019-04-04T06:44:16.128Z,93.80
2019-04-04T06:46:53.168Z,93.60
2019-04-04T06:49:24.620Z,93.10
2019-04-04T06:51:58.042Z,92.90
2019-04-04T06:54:31.450Z,93.80
2019-04-04T06:57:05.937Z,93.40
2019-04-04T06:59:42.991Z,93.20
2019-04-04T07:02:14.233Z,93.00
2019-04-04T07:04:47.610Z,92.90
2019-04-04T07:07:21.100Z,92.80
2019-04-04T07:09:54.571Z,92.90
2019-04-04T07:12:28.609Z,92.60
2019-04-04T07:15:02.170Z,92.20
2019-04-04T07:17:40.024Z,92.30
2019-04-04T07:20:11.973Z,92.40
2019-04-04T07:22:46.398Z,92.20
2019-04-04T07:25:19.892Z,91.80
2019-04-04T07:27:53.290Z,91.70
2019-04-04T07:30:28.397Z,91.90
2019-04-04T07:33:03.141Z,91.80
2019-04-04T07:35:36.622Z,92.60
2019-04-04T07:38:10.073Z,92.10
2019-04-04T07:40:43.541Z,91.90
2019-04-04T07:43:18.932Z,91.60
2019-04-04T07:45:51.988Z,91.20
2019-04-04T07:48:28.389Z,92.10
2019-04-04T07:51:01.882Z,91.80
2019-04-04T07:53:36.381Z,90.90
2019-04-04T07:56:13.887Z,90.70
2019-04-04T07:58:45.592Z,90.70
2019-04-04T08:01:20.078Z,91.00
2019-04-04T08:03:53.579Z,91.10
2019-04-04T08:06:26.974Z,90.80
2019-04-04T08:09:01.664Z,90.20
2019-04-04T08:11:36.367Z,89.50
2019-04-04T08:14:10.943Z,90.00
2019-04-04T08:16:44.428Z,90.60
2019-04-04T08:19:17.858Z,89.80
2019-04-04T08:21:52.249Z,90.10
2019-04-04T08:24:25.679Z,90.00
2019-04-04T08:27:03.295Z,88.70
2019-04-04T08:29:36.693Z,90.40
2019-04-04T08:32:10.083Z,88.90
2019-04-04T08:34:44.513Z,88.80
2019-04-04T08:37:17.884Z,87.80
2019-04-04T08:39:51.302Z,88.30
2019-04-04T08:42:24.932Z,87.00
2019-04-04T08:44:58.462Z,86.70
2019-04-04T08:47:31.933Z,86.60
2019-04-04T08:50:06.269Z,87.50
2019-04-04T08:52:39.723Z,86.60
2019-04-04T08:55:13.151Z,86.20
2019-04-04T08:57:47.721Z,85.70
2019-04-04T09:00:21.351Z,86.30
2019-04-04T09:02:55.749Z,84.80
2019-04-04T09:05:29.147Z,83.60
2019-04-04T09:08:02.660Z,82.00
2019-04-04T09:10:37.025Z,82.90
2019-04-04T09:13:10.574Z,83.00
2019-04-04T09:15:43.914Z,83.50
2019-04-04T09:18:17.434Z,84.30
2019-04-04T09:20:51.843Z,81.40
2019-04-04T09:23:26.450Z,81.30
2019-04-04T09:26:05.583Z,81.60
2019-04-04T09:28:34.983Z,81.60
2019-04-04T09:31:08.393Z,82.00
2019-04-04T09:33:41.950Z,84.70
2019-04-04T09:36:16.296Z,80.70
2019-04-04T09:38:49.880Z,79.90
2019-04-04T09:41:23.261Z,79.20
2019-04-04T09:43:56.772Z,79.90
2019-04-04T09:46:31.337Z,78.30
2019-04-04T09:49:05.993Z,79.50
2019-04-04T09:51:39.409Z,78.70
2019-04-04T09:54:12.819Z,77.90
2019-04-04T09:56:46.588Z,80.50
2019-04-04T09:59:19.971Z,79.60
2019-04-04T10:01:53.358Z,78.40
2019-04-04T10:04:27.800Z,77.90
2019-04-04T10:07:02.432Z,80.20
2019-04-04T10:09:35.945Z,80.70
2019-04-04T10:12:10.530Z,78.10
2019-04-04T10:14:44.103Z,77.00
2019-04-04T10:17:17.572Z,76.30
2019-04-04T10:19:51.104Z,77.50
2019-04-04T10:22:26.492Z,75.60
2019-04-04T10:24:59.554Z,77.80
2019-04-04T10:27:34.125Z,77.60
2019-04-04T10:30:11.471Z,75.80
2019-04-04T10:32:44.904Z,76.40
2019-04-04T10:35:18.589Z,74.70
2019-04-04T10:37:52.034Z,73.40
2019-04-04T10:40:25.632Z,74.10
2019-04-04T10:43:00.298Z,74.80
2019-04-04T10:45:33.841Z,75.10
2019-04-04T10:48:08.317Z,74.00
2019-04-04T10:50:41.770Z,72.90
2019-04-04T10:53:15.247Z,73.40
2019-04-04T10:55:48.650Z,73.40
2019-04-04T10:58:23.693Z,73.30
2019-04-04T11:00:59.335Z,74.00
2019-04-04T11:03:32.717Z,73.50
2019-04-04T11:06:06.244Z,70.20
2019-04-04T11:08:39.774Z,70.70
2019-04-04T11:11:13.218Z,70.00
2019-04-04T11:13:47.875Z,70.60
2019-04-04T11:16:30.140Z,67.60
2019-04-04T11:18:56.582Z,69.40
2019-04-04T11:21:30.105Z,66.60
2019-04-04T11:24:11.798Z,65.10
2019-04-04T11:26:45.332Z,65.60
2019-04-04T11:29:18.752Z,64.30
2019-04-04T11:31:52.274Z,63.60
2019-04-04T11:34:26.013Z,64.60
2019-04-04T11:36:59.472Z,61.90
2019-04-04T11:39:32.847Z,60.80
2019-04-04T11:42:06.333Z,61.00
2019-04-04T11:44:41.011Z,60.00
2019-04-04T11:47:14.527Z,59.00
2019-04-04T11:49:47.935Z,59.80
2019-04-04T11:52:21.407Z,57.80
2019-04-04T11:54:58.710Z,56.80
2019-04-04T11:57:33.309Z,55.50
2019-04-04T12:00:09.614Z,55.00
2019-04-04T12:02:43.133Z,56.30
2019-04-04T12:05:16.525Z,56.10
2019-04-04T12:07:50.050Z,57.10
2019-04-04T12:10:23.539Z,56.50
2019-04-04T12:12:58.576Z,55.60
2019-04-04T12:15:32.331Z,54.80
2019-04-04T12:18:05.794Z,55.90
2019-04-04T12:20:39.178Z,56.10
2019-04-04T12:23:12.679Z,55.80
2019-04-04T12:25:46.072Z,53.10
2019-04-04T12:28:19.583Z,53.90
2019-04-04T12:30:52.889Z,53.90
2019-04-04T12:33:26.366Z,52.10
2019-04-04T12:35:59.821Z,51.70
2019-04-04T12:38:33.305Z,52.30
2019-04-04T12:41:06.852Z,52.00
2019-04-04T12:43:40.318Z,52.60
2019-04-04T12:46:13.808Z,52.30
2019-04-04T12:48:48.249Z,51.70
2019-04-04T12:51:21.673Z,50.60
2019-04-04T12:53:55.104Z,51.20
2019-04-04T12:56:31.199Z,51.10
2019-04-04T12:59:04.645Z,51.00
2019-04-04T13:01:38.029Z,50.10
2019-04-04T13:04:11.619Z,50.80
2019-04-04T13:06:45.142Z,49.90
2019-04-04T13:09:19.889Z,49.40
2019-04-04T13:11:53.351Z,48.90
2019-04-04T13:14:26.796Z,49.10
2019-04-04T13:17:01.420Z,48.40
2019-04-04T13:19:34.840Z,48.40
2019-04-04T13:22:08.387Z,47.10
2019-04-04T13:24:41.884Z,49.20
2019-04-04T13:27:17.619Z,46.80
2019-04-04T13:29:50.463Z,47.80
2019-04-04T13:32:23.933Z,46.90
2019-04-04T13:34:59.401Z,47.60
2019-04-04T13:37:32.562Z,47.50
2019-04-04T13:40:08.094Z,47.30
2019-04-04T13:42:41.494Z,47.30
2019-04-04T13:45:15.090Z,46.10
2019-04-04T13:47:48.613Z,45.80
2019-04-04T13:50:22.132Z,45.90
2019-04-04T13:52:55.573Z,46.10
2019-04-04T13:55:29.134Z,45.80
2019-04-04T13:58:02.639Z,45.60
2019-04-04T14:00:36.142Z,45.70
2019-04-04T14:03:09.630Z,46.40
2019-04-04T14:05:43.024Z,45.20
2019-04-04T14:08:16.606Z,45.20
2019-04-04T14:10:58.048Z,45.80
2019-04-04T14:13:26.264Z,45.30
2019-04-04T14:16:00.079Z,46.00
2019-04-04T14:18:39.909Z,46.10
2019-04-04T14:21:08.810Z,45.40
2019-04-04T14:23:45.184Z,44.90
2019-04-04T14:26:17.401Z,44.50
2019-04-04T14:28:50.913Z,45.20
2019-04-04T14:31:24.430Z,45.20
2019-04-04T14:33:57.943Z,45.50
2019-04-04T14:36:31.317Z,44.70
2019-04-04T14:39:06.944Z,44.50
2019-04-04T14:41:40.486Z,43.90
2019-04-04T14:44:15.606Z,45.00
2019-04-04T14:46:50.453Z,45.00
2019-04-04T14:49:24.371Z,46.20
2019-04-04T14:51:57.959Z,47.40
2019-04-04T14:54:31.412Z,48.40
2019-04-04T14:57:04.922Z,49.10
2019-04-04T14:59:38.482Z,49.50
2019-04-04T15:02:12.152Z,49.40
2019-04-04T15:04:45.874Z,49.40
2019-04-04T15:07:20.412Z,50.10
2019-04-04T15:09:53.884Z,50.10
2019-04-04T15:12:27.466Z,51.00
2019-04-04T15:15:02.078Z,51.20
2019-04-04T15:17:35.505Z,50.80
2019-04-04T15:20:09.499Z,50.70
2019-04-04T15:22:42.955Z,51.70
2019-04-04T15:25:18.644Z,51.70
2019-04-04T15:27:52.138Z,52.80
2019-04-04T15:30:25.752Z,52.80
2019-04-04T15:32:59.338Z,53.40
2019-04-04T15:35:32.826Z,54.40
2019-04-04T15:38:06.213Z,53.70
2019-04-04T15:40:39.723Z,54.40
2019-04-04T15:43:13.163Z,55.00
2019-04-04T15:45:46.704Z,55.00
2019-04-04T15:48:20.224Z,55.40
2019-04-04T15:50:54.025Z,55.90
2019-04-04T15:53:28.633Z,55.90
2019-04-04T15:56:02.073Z,56.30
2019-04-04T15:58:35.607Z,57.00
2019-04-04T16:01:13.121Z,57.50
2019-04-04T16:03:46.613Z,58.40
2019-04-04T16:06:20.206Z,59.20
2019-04-04T16:08:53.625Z,59.60
2019-04-04T16:11:27.043Z,61.00
2019-04-04T16:14:01.539Z,61.00
2019-04-04T16:16:38.404Z,61.80
2019-04-04T16:19:11.782Z,62.20
2019-04-04T16:21:45.326Z,62.40
2019-04-04T16:24:18.813Z,62.80
2019-04-04T16:26:52.350Z,64.10
2019-04-04T16:29:25.702Z,63.60
2019-04-04T16:31:59.136Z,64.60
2019-04-04T16:34:32.644Z,65.80
2019-04-04T16:37:06.183Z,65.70
2019-04-04T16:39:40.652Z,65.70
2019-04-04T16:42:14.149Z,67.30
2019-04-04T16:44:47.823Z,67.60
2019-04-04T16:47:21.468Z,68.00
2019-04-04T16:49:55.777Z,68.40
2019-04-04T16:52:29.323Z,69.10
2019-04-04T16:55:02.785Z,68.80
2019-04-04T16:57:36.332Z,69.10
2019-04-04T17:00:14.037Z,69.40
2019-04-04T17:02:47.710Z,70.50
2019-04-04T17:05:21.230Z,70.40
2019-04-04T17:07:54.794Z,72.50
2019-04-04T17:10:28.419Z,72.30
2019-04-04T17:13:01.826Z,73.00
2019-04-04T17:15:35.361Z,73.60
2019-04-04T17:18:10.173Z,75.10
2019-04-04T17:20:43.548Z,75.70
2019-04-04T17:23:16.993Z,75.30
2019-04-04T17:25:50.467Z,76.00
2019-04-04T17:28:24.194Z,76.90
2019-04-04T17:30:57.733Z,77.40
2019-04-04T17:33:31.152Z,77.90
2019-04-04T17:36:04.912Z,78.10
2019-04-04T17:38:38.483Z,79.10
2019-04-04T17:41:12.082Z,79.20
2019-04-04T17:43:46.093Z,79.40
2019-04-04T17:46:19.590Z,80.70
2019-04-04T17:48:54.242Z,80.80
2019-04-04T17:51:28.309Z,81.90
2019-04-04T17:54:01.813Z,81.70
2019-04-04T17:56:36.567Z,82.50
2019-04-04T17:59:10.146Z,83.20
2019-04-04T18:01:43.580Z,83.90
2019-04-04T18:04:17.265Z,83.80
2019-04-04T18:06:50.633Z,84.10
2019-04-04T18:09:31.585Z,84.90
2019-04-04T18:12:01.083Z,85.30
2019-04-04T18:14:34.503Z,86.60
2019-04-04T18:17:09.083Z,87.70
2019-04-04T18:19:42.520Z,87.40
2019-04-04T18:22:15.981Z,88.00
2019-04-04T18:24:49.379Z,88.50
2019-04-04T18:27:22.803Z,89.10
2019-04-04T18:29:56.341Z,90.10
2019-04-04T18:32:29.716Z,90.00
2019-04-04T18:35:05.099Z,90.10
2019-04-04T18:37:38.636Z,90.10
2019-04-04T18:40:12.602Z,90.50
2019-04-04T18:42:53.294Z,90.80
2019-04-04T18:45:21.540Z,91.10
2019-04-04T18:47:55.085Z,91.20
2019-04-04T18:50:34.451Z,91.40
2019-04-04T18:53:05.005Z,91.40
2019-04-04T18:55:39.223Z,92.00
2019-04-04T18:58:12.643Z,92.00
2019-04-04T19:00:47.365Z,91.70
2019-04-04T19:03:20.933Z,92.00
2019-04-04T19:05:54.500Z,92.10
2019-04-04T19:08:29.057Z,92.50
2019-04-04T19:11:02.401Z,92.60
2019-04-04T19:13:44.160Z,93.10
2019-04-04T19:16:10.853Z,92.90
2019-04-04T19:18:44.293Z,93.30
2019-04-04T19:21:17.612Z,93.20
2019-04-04T19:23:50.968Z,93.30
2019-04-04T19:26:24.424Z,93.50
2019-04-04T19:28:57.864Z,93.60
2019-04-04T19:31:32.370Z,93.80
2019-04-04T19:34:05.931Z,94.30
2019-04-04T19:36:41.759Z,94.00
2019-04-04T19:39:17.231Z,94.20
2019-04-04T19:41:51.196Z,94.30
2019-04-04T19:44:24.550Z,94.30
2019-04-04T19:47:06.301Z,94.20
2019-04-04T19:49:40.773Z,94.50
2019-04-04T19:52:14.306Z,94.70
2019-04-04T19:54:47.936Z,95.10
2019-04-04T19:57:21.466Z,94.80
2019-04-04T19:59:54.846Z,95.00
2019-04-04T20:02:28.448Z,95.10
2019-04-04T20:05:01.921Z,95.30
2019-04-04T20:07:35.495Z,95.40
2019-04-04T20:10:11.078Z,95.30
2019-04-04T20:12:45.739Z,95.50
2019-04-04T20:15:19.294Z,96.00
2019-04-04T20:17:52.783Z,95.80
2019-04-04T20:20:26.196Z,95.80
2019-04-04T20:22:59.624Z,96.30
2019-04-04T20:25:33.022Z,96.80
2019-04-04T20:28:06.485Z,96.80
2019-04-04T20:30:41.063Z,96.80
2019-04-04T20:33:14.413Z,97.10
2019-04-04T20:35:47.926Z,97.00
2019-04-04T20:38:21.421Z,96.90
2019-04-04T20:40:54.782Z,97.00
2019-04-04T20:43:28.309Z,97.00
2019-04-04T20:46:01.762Z,97.00
2019-04-04T20:48:35.352Z,97.40
2019-04-04T20:51:08.816Z,97.50
2019-04-04T20:53:42.236Z,97.60
2019-04-04T20:56:15.615Z,97.40
2019-04-04T20:58:49.148Z,97.30
2019-04-04T21:01:23.731Z,97.50
2019-04-04T21:03:57.134Z,97.40
2019-04-04T21:06:30.510Z,97.40
2019-04-04T21:09:04.938Z,97.20
2019-04-04T21:11:39.491Z,97.30
2019-04-04T21:14:12.963Z,97.20
2019-04-04T21:16:46.644Z,97.30
2019-04-04T21:19:20.170Z,97.20
2019-04-04T21:21:56.679Z,97.20
2019-04-04T21:24:30.088Z,97.10
2019-04-04T21:27:04.664Z,97.10
2019-04-04T21:29:38.088Z,97.20
2019-04-04T21:32:11.470Z,97.00
2019-04-04T21:34:47.518Z,96.90
2019-04-04T21:37:20.893Z,96.90
2019-04-04T21:39:54.337Z,97.00
2019-04-04T21:42:27.819Z,96.90
2019-04-04T21:45:02.424Z,96.90
2019-04-04T21:47:35.825Z,97.00
2019-04-04T21:50:10.388Z,96.90
2019-04-04T21:52:43.859Z,96.90
2019-04-04T21:55:17.380Z,96.80
2019-04-04T21:57:51.911Z,96.80
2019-04-04T22:00:27.063Z,96.80
2019-04-04T22:03:02.064Z,96.90
2019-04-04T22:05:36.618Z,96.90
2019-04-04T22:08:11.242Z,96.80
2019-04-04T22:10:44.814Z,97.00
2019-04-04T22:13:18.351Z,96.90
2019-04-04T22:15:51.883Z,97.00
2019-04-04T22:18:25.232Z,97.30
2019-04-04T22:20:58.745Z,97.70
2019-04-04T22:24:03.416Z,98.10
2019-04-04T22:26:36.924Z,98.30
2019-04-04T22:29:10.535Z,99.00
2019-04-04T22:31:43.928Z,99.00
2019-04-04T22:34:18.464Z,99.00
2019-04-04T22:36:59.902Z,99.20
2019-04-04T22:39:33.443Z,99.30
2019-04-04T22:42:06.796Z,99.30
2019-04-04T22:44:40.303Z,99.40
2019-04-04T22:47:13.661Z,99.40
2019-04-04T22:49:47.038Z,99.80
2019-04-04T22:52:20.442Z,99.40
2019-04-04T22:54:53.841Z,99.60
2019-04-04T22:57:27.302Z,99.40
2019-04-04T23:00:00.784Z,99.90
2019-04-04T23:02:35.705Z,99.90
2019-04-04T23:05:09.401Z,99.80
2019-04-04T23:07:42.773Z,99.70
2019-04-04T23:16:22.762Z,99.80
2019-04-04T23:18:56.216Z,99.50
2019-04-04T23:21:47.636Z,99.60
2019-04-04T23:24:21.079Z,99.40
2019-04-04T23:26:54.522Z,99.40
2019-04-04T23:29:27.858Z,99.40
2019-04-04T23:34:57.392Z,99.50
2019-04-04T23:37:30.806Z,99.40
2019-04-04T23:40:04.585Z,99.90
2019-04-04T23:42:37.958Z,99.60
2019-04-04T23:45:16.010Z,99.70
2019-04-04T23:47:49.426Z,99.60
2019-04-04T23:50:29.214Z,99.90
2019-04-04T23:53:02.716Z,99.80
2019-04-04T23:55:36.159Z,99.70
2019-04-04T23:58:09.514Z,99.80
